Jacksonville, FL (32227)

11:04 PM EDT on May 04, 2015 (GMT -0400)
Atlantic Beach/Mayport | | Change Station
CLOSE
Current Station
Personal Weather Station
Location: Atlantic Beach, FL
Elevation: 13 ft
Nearby Weather Stations

Elev 13 ft 30.37 °N, 81.41 °W | Updated 1 second ago

Mostly Cloudy
Mostly Cloudy
71.7 °F
Feels Like 73 °F
N
0.0
Wind Variable Wind from ESE
Gusts 6.0 mph

Today
High -- | Low -- °F
--% Chance of Precip.
Yesterday
High -- | Low -- °F
Precip. -- in
6:39 AM 8:05 PM
Full, 99% visible
Pressure 30.25 in
Visibility 10.0 miles
Clouds Scattered Clouds 5000 ft
Mostly Cloudy 7000 ft
Mostly Cloudy 25000 ft
Heat Index 73 °F
Dew Point 64 °F
Humidity 78%
Rainfall 0.00 in
Snow Depth Not available.
UV 0 out of 12
Pollen 5.80 out of 12
Air Quality Not available.
Flu Activity Local Activity
METAR KNRB 050152Z 09013KT 10SM SCT050 BKN070 BKN250 22/17 A3025 RMK AO2 RAB10E30 SLP242 P0000 T02170167 $

More Conditions Fewer Conditions

Pressure 30.25 in
Visibility 10.0 miles
Clouds Scattered Clouds 5000 ft
Mostly Cloudy 7000 ft
Mostly Cloudy 25000 ft
Heat Index 73 °F
Dew Point 64 °F
Humidity 78%
Rainfall 0.00 in
Snow Depth Not available.
UV 0 out of 12
Pollen 5.80 out of 12
Air Quality Not available.
Flu Activity Local Activity
METAR KNRB 050152Z 09013KT 10SM SCT050 BKN070 BKN250 22/17 A3025 RMK AO2 RAB10E30 SLP242 P0000 T02170167 $

More Conditions Fewer Conditions

Nepal has a long way to go to dig out and rebuild from a devastating earthquake. We have teamed up with several charities and organizations to make contributing to the relief effort as easy as possible.
How you can help: Portlight Strategies | Red Cross

10-Day Weather Forecast

Almanac

Astronomy

May. 04, 2015 Rise Set
Actual Time
Civil Twilight
Nautical Twilight
Astronomical Twilight
Moon
Length of Visible Light
Length of Day
Tomorrow will be .
, % of the Moon is Illuminated

Today's Extremes

State Highs State Lows

Community

WunderPhotos

Upload Photos

1,818,804 photos uploaded!

WunderBlogs® & News

Nearby

Air Quality

  Air Quality AQ Index Pollutant
Not available.

Snow Depth

Station Depth Elevation

Earthquake Activity

City Distance Mag. Time & Date
Minimum magnitude displayed is 2.5.

Coastal Water Temperatures

Place Temperature

Stations

Nearby Weather Stations

Station Location Temp. Windchill Dew Point Humidity Wind Precip. Elev Updated Type